Time;durP1;ratioP1;P1;durP2;ratioP2;P2;SDS_P1;SDS_P2;PMS_P1;PMS_P2;Temp;Humidity;BMP_temperature;BMP_pressure;BME280_temperature;BME280_humidity;BME280_pressure;Samples;Min_cycle;Max_cycle;Signal;HPM_P1;HPM_P2
2022/09/07 00:00:24;;;;;;;2.60;1.03;;;24.70;99.90;;;;;;1034844;28;20033;-65
2022/09/07 00:00:55;;;;;;;3.10;1.37;;;24.70;99.90;;;;;;1034727;28;20028;-64
2022/09/07 00:01:26;;;;;;;1.50;1.10;;;24.70;99.90;;;;;;1034858;28;20022;-64
2022/09/07 00:01:56;;;;;;;3.60;1.60;;;24.70;99.90;;;;;;1034672;28;20014;-64
2022/09/07 00:02:27;;;;;;;2.37;1.20;;;24.60;99.90;;;;;;1035074;28;20425;-64
2022/09/07 00:02:57;;;;;;;2.73;1.70;;;24.60;99.90;;;;;;1034982;28;20021;-64
2022/09/07 00:03:28;;;;;;;1.80;1.40;;;24.60;99.90;;;;;;1030186;28;20057;-64
2022/09/07 00:03:59;;;;;;;2.08;1.20;;;24.50;99.90;;;;;;1030545;28;20101;-64
2022/09/07 00:04:30;;;;;;;1.90;1.30;;;24.60;99.90;;;;;;1030836;28;20018;-64
2022/09/07 00:05:00;;;;;;;2.17;1.40;;;24.50;99.90;;;;;;1031047;28;20019;-64
2022/09/07 00:05:31;;;;;;;3.07;1.37;;;24.50;99.90;;;;;;1038900;28;20021;-64
2022/09/07 00:06:10;;;;;;;1.85;1.30;;;24.60;99.90;;;;;;1038765;28;20025;-64
2022/09/07 00:06:40;;;;;;;1.50;1.08;;;24.60;99.90;;;;;;1037526;28;20349;-65
2022/09/07 00:07:11;;;;;;;2.10;1.30;;;24.50;99.90;;;;;;1035295;28;20461;-64
2022/09/07 00:07:41;;;;;;;2.23;1.37;;;24.50;99.90;;;;;;1035053;28;20014;-65
2022/09/07 00:08:13;;;;;;;1.73;1.10;;;24.50;99.90;;;;;;1035154;28;20017;-65
2022/09/07 00:08:43;;;;;;;1.38;1.08;;;24.60;99.90;;;;;;1034687;28;20010;-65
2022/09/07 00:09:14;;;;;;;1.53;1.00;;;24.50;99.90;;;;;;1034695;28;20017;-64
2022/09/07 00:09:44;;;;;;;1.97;1.40;;;24.50;99.90;;;;;;1034799;28;20120;-63
2022/09/07 00:10:15;;;;;;;3.13;1.63;;;24.50;99.90;;;;;;1034755;28;20021;-63
2022/09/07 00:11:01;;;;;;;2.00;1.23;;;24.50;99.90;;;;;;1035045;28;20042;-63
2022/09/07 00:11:31;;;;;;;2.22;1.10;;;24.50;99.90;;;;;;1035052;28;20022;-63
2022/09/07 00:12:02;;;;;;;3.03;1.33;;;24.50;99.90;;;;;;1035041;28;20046;-64
2022/09/07 00:12:33;;;;;;;4.53;1.40;;;24.50;99.90;;;;;;1035045;28;20037;-63
2022/09/07 00:13:04;;;;;;;2.53;1.40;;;24.50;99.90;;;;;;1034997;28;20006;-64
2022/09/07 00:13:37;;;;;;;5.38;1.80;;;24.50;99.90;;;;;;1034780;28;20021;-65
2022/09/07 00:14:08;;;;;;;1.85;1.20;;;24.50;99.90;;;;;;1035050;28;20088;-64
2022/09/07 00:14:39;;;;;;;1.23;1.10;;;24.50;99.90;;;;;;1034982;28;20010;-64
2022/09/07 00:15:10;;;;;;;2.53;1.53;;;24.50;99.90;;;;;;1035171;28;20010;-65
2022/09/07 00:15:41;;;;;;;2.03;1.27;;;24.50;99.90;;;;;;1034977;28;20068;-64
2022/09/07 00:16:17;;;;;;;2.40;1.27;;;24.50;99.90;;;;;;1034579;28;20065;-65
2022/09/07 00:16:48;;;;;;;1.30;1.10;;;24.50;99.90;;;;;;1034779;28;20048;-64
2022/09/07 00:17:18;;;;;;;2.10;1.20;;;24.50;99.90;;;;;;1034627;28;20167;-64
2022/09/07 00:17:49;;;;;;;1.37;1.13;;;24.50;99.90;;;;;;1034792;28;20017;-64
2022/09/07 00:18:19;;;;;;;2.27;1.47;;;24.50;99.90;;;;;;1035065;28;20018;-65
2022/09/07 00:18:59;;;;;;;3.13;1.27;;;24.50;99.90;;;;;;1035209;28;20018;-64
2022/09/07 00:19:29;;;;;;;3.22;1.30;;;24.50;99.90;;;;;;1034911;28;20049;-64
2022/09/07 00:20:00;;;;;;;3.93;1.70;;;24.50;99.90;;;;;;1035126;28;20053;-64
2022/09/07 00:20:31;;;;;;;2.72;1.40;;;24.50;99.90;;;;;;1034955;28;20050;-64
2022/09/07 00:21:07;;;;;;;1.90;1.43;;;24.50;99.90;;;;;;1035081;28;20006;-64
2022/09/07 00:21:37;;;;;;;2.25;1.33;;;24.50;99.90;;;;;;1034851;28;20021;-64
2022/09/07 00:22:08;;;;;;;2.07;1.30;;;24.50;99.90;;;;;;1035356;28;20045;-63
2022/09/07 00:22:38;;;;;;;2.83;1.57;;;24.50;99.90;;;;;;1034885;28;20022;-63
2022/09/07 00:23:10;;;;;;;1.63;1.23;;;24.50;99.90;;;;;;1035062;28;20014;-64
2022/09/07 00:23:40;;;;;;;1.83;1.05;;;24.50;99.90;;;;;;1034471;28;20064;-64
2022/09/07 00:24:11;;;;;;;3.77;1.60;;;24.40;99.90;;;;;;1035036;28;20017;-64
2022/09/07 00:24:43;;;;;;;2.83;1.37;;;24.40;99.90;;;;;;1034218;28;20025;-64
2022/09/07 00:25:13;;;;;;;3.25;1.52;;;24.40;99.90;;;;;;1035044;28;20026;-63
2022/09/07 00:25:44;;;;;;;2.23;1.13;;;24.40;99.90;;;;;;1034894;28;20030;-64
2022/09/07 00:26:21;;;;;;;2.37;1.23;;;24.40;99.90;;;;;;1035033;28;20101;-64
2022/09/07 00:26:54;;;;;;;1.65;1.23;;;24.40;99.90;;;;;;1035091;28;20030;-65
2022/09/07 00:27:25;;;;;;;2.47;1.73;;;24.40;99.90;;;;;;1035121;28;20029;-64
2022/09/07 00:27:56;;;;;;;2.23;1.27;;;24.40;99.90;;;;;;1034466;28;20090;-63
2022/09/07 00:28:26;;;;;;;2.13;1.40;;;24.40;99.90;;;;;;1034861;28;20109;-64
2022/09/07 00:28:59;;;;;;;2.10;1.33;;;24.40;99.90;;;;;;1034524;28;20018;-64
2022/09/07 00:29:30;;;;;;;2.33;1.35;;;24.30;99.90;;;;;;1034844;28;20128;-64
2022/09/07 00:30:00;;;;;;;1.40;1.10;;;24.30;99.90;;;;;;1034944;28;20172;-65
2022/09/07 00:30:31;;;;;;;3.13;1.80;;;24.30;99.90;;;;;;1035112;28;20486;-65
2022/09/07 00:31:03;;;;;;;2.38;1.30;;;24.30;99.90;;;;;;1034945;28;20097;-64
2022/09/07 00:31:34;;;;;;;3.08;1.70;;;24.30;99.90;;;;;;1034467;28;20021;-64
2022/09/07 00:32:05;;;;;;;2.47;1.55;;;24.30;99.90;;;;;;1034621;28;20018;-63
2022/09/07 00:32:35;;;;;;;1.90;1.60;;;24.20;99.90;;;;;;1034724;28;20010;-64
2022/09/07 00:33:06;;;;;;;2.30;1.40;;;24.30;99.90;;;;;;1034579;28;20018;-65
2022/09/07 00:33:36;;;;;;;2.47;1.50;;;24.30;99.90;;;;;;1034988;28;20558;-62
2022/09/07 00:34:07;;;;;;;2.87;1.67;;;24.30;99.90;;;;;;1035032;28;20031;-64
2022/09/07 00:34:38;;;;;;;1.60;1.30;;;24.20;99.90;;;;;;1034849;28;20067;-63
2022/09/07 00:35:08;;;;;;;2.43;1.33;;;24.20;99.90;;;;;;1034599;28;20070;-63
2022/09/07 00:35:40;;;;;;;2.23;1.50;;;24.20;99.90;;;;;;1034583;28;20029;-63
2022/09/07 00:36:11;;;;;;;2.65;1.77;;;24.10;99.90;;;;;;1034806;28;20766;-65
2022/09/07 00:36:42;;;;;;;2.10;1.43;;;24.20;99.90;;;;;;1034161;28;20860;-66
2022/09/07 00:37:12;;;;;;;2.57;1.50;;;24.10;99.90;;;;;;1034562;28;20068;-65
2022/09/07 00:37:42;;;;;;;2.77;1.70;;;24.20;99.90;;;;;;1034622;28;20026;-64
2022/09/07 00:38:13;;;;;;;2.10;1.30;;;24.10;99.90;;;;;;1034776;28;20018;-64
2022/09/07 00:38:44;;;;;;;3.33;1.60;;;24.10;99.90;;;;;;1034433;28;20022;-63
2022/09/07 00:39:15;;;;;;;2.67;1.50;;;24.10;99.90;;;;;;1038931;28;20018;-64
2022/09/07 00:39:45;;;;;;;1.97;1.47;;;24.10;99.90;;;;;;1038535;28;20168;-64
2022/09/07 00:40:16;;;;;;;2.50;1.30;;;24.10;99.90;;;;;;1034658;28;20088;-64
2022/09/07 00:40:46;;;;;;;3.30;1.50;;;24.10;99.90;;;;;;1034566;28;20026;-64
2022/09/07 00:41:19;;;;;;;2.30;1.37;;;24.10;99.90;;;;;;1034715;28;20148;-63
2022/09/07 00:41:49;;;;;;;1.75;1.30;;;24.00;99.90;;;;;;1034554;28;20029;-64
2022/09/07 00:42:21;;;;;;;2.17;1.33;;;24.00;99.90;;;;;;1034624;28;20042;-64
2022/09/07 00:42:52;;;;;;;2.25;1.58;;;24.00;99.90;;;;;;1030441;28;20061;-66
2022/09/07 00:43:47;;;;;;;2.20;1.40;;;24.10;99.90;;;;;;1030274;28;20026;-65
2022/09/07 00:44:41;;;;;;;2.60;1.73;;;24.00;99.90;;;;;;1034332;28;20053;-64
2022/09/07 00:45:20;;;;;;;2.60;1.38;;;24.00;99.90;;;;;;1022303;29;20499;-63
2022/09/07 00:45:50;;;;;;;2.72;1.50;;;24.00;99.90;;;;;;1022550;28;20038;-64
2022/09/07 00:46:28;;;;;;;2.67;1.87;;;24.00;99.90;;;;;;1031080;28;20021;-64
2022/09/07 00:46:59;;;;;;;3.47;1.27;;;24.00;99.90;;;;;;1030815;28;20705;-63
2022/09/07 00:47:56;;;;;;;2.80;1.50;;;24.00;99.90;;;;;;1030663;28;20019;-64
2022/09/07 00:48:37;;;;;;;;;;;24.00;99.90;;;;;;1033182;28;20422;-65
2022/09/07 00:49:16;;;;;;;2.55;1.60;;;24.00;99.90;;;;;;1034601;28;19948;-64
2022/09/07 00:49:52;;;;;;;1.90;1.38;;;24.00;99.90;;;;;;1034903;28;20025;-66
2022/09/07 00:50:39;;;;;;;3.10;1.70;;;24.00;99.90;;;;;;1035091;28;20018;-65
2022/09/07 00:51:13;;;;;;;;;;;24.10;99.90;;;;;;1035422;28;20376;-65
2022/09/07 00:51:59;;;;;;;4.32;1.75;;;24.00;99.90;;;;;;1032325;28;19948;-64
2022/09/07 00:52:33;;;;;;;2.58;1.58;;;24.00;99.90;;;;;;1034566;28;20018;-64
2022/09/07 00:53:13;;;;;;;2.20;1.40;;;24.00;99.90;;;;;;1034690;28;20014;-64
2022/09/07 00:53:48;;;;;;;3.20;1.73;;;24.10;99.90;;;;;;1035006;28;20695;-64
2022/09/07 00:54:26;;;;;;;1.88;1.27;;;24.00;99.90;;;;;;1030846;28;20075;-64
2022/09/07 00:55:00;;;;;;;;;;;24.00;99.90;;;;;;1030976;28;20137;-64
2022/09/07 00:55:32;;;;;;;2.15;1.65;;;24.00;99.90;;;;;;1030901;28;19948;-64
2022/09/07 00:56:04;;;;;;;4.43;1.30;;;24.00;99.90;;;;;;1038552;28;20018;-64
2022/09/07 00:56:38;;;;;;;2.53;1.55;;;24.00;99.90;;;;;;1038558;28;20427;-64
2022/09/07 00:57:09;;;;;;;1.55;1.42;;;24.00;99.90;;;;;;1039134;28;20049;-64
2022/09/07 00:57:44;;;;;;;3.47;1.40;;;24.00;99.90;;;;;;1033073;28;20386;-64
2022/09/07 00:58:15;;;;;;;2.58;1.40;;;24.10;99.90;;;;;;1034902;28;20089;-65
2022/09/07 00:58:46;;;;;;;3.67;1.83;;;24.00;99.90;;;;;;1035016;28;20041;-64
2022/09/07 00:59:21;;;;;;;2.80;1.37;;;24.00;99.90;;;;;;1034224;28;20012;-64
2022/09/07 00:59:53;;;;;;;2.90;2.05;;;24.00;99.90;;;;;;1034690;28;20112;-65
2022/09/07 01:00:24;;;;;;;2.17;1.10;;;24.00;99.90;;;;;;1034478;28;20591;-65
2022/09/07 01:00:55;;;;;;;5.78;1.60;;;24.00;99.90;;;;;;1035592;28;20688;-65
2022/09/07 01:01:26;;;;;;;2.83;1.40;;;24.00;99.90;;;;;;1038306;28;20009;-65
2022/09/07 01:01:57;;;;;;;1.83;1.33;;;24.00;99.90;;;;;;1035004;28;20014;-64
2022/09/07 01:02:27;;;;;;;2.47;1.50;;;24.00;99.90;;;;;;1034809;28;20108;-65
2022/09/07 01:02:59;;;;;;;2.40;1.30;;;24.00;99.90;;;;;;1034706;28;20018;-64
2022/09/07 01:03:35;;;;;;;2.35;1.30;;;24.00;99.90;;;;;;1034449;28;20017;-65
2022/09/07 01:04:06;;;;;;;3.22;1.30;;;24.00;99.90;;;;;;1034738;28;20598;-64
2022/09/07 01:04:38;;;;;;;1.23;0.95;;;24.00;99.90;;;;;;1034451;28;20090;-65
2022/09/07 01:05:28;;;;;;;2.00;1.30;;;24.10;99.90;;;;;;1035008;28;20016;-63
2022/09/07 01:06:30;;;;;;;2.13;1.27;;;24.10;99.90;;;;;;1034732;28;20045;-63
2022/09/07 01:07:04;;;;;;;3.13;1.70;;;24.20;99.90;;;;;;1034718;28;20041;-64
2022/09/07 01:07:35;;;;;;;3.47;1.50;;;24.20;99.90;;;;;;1034818;28;20014;-64
2022/09/07 01:08:06;;;;;;;2.80;1.40;;;24.20;99.90;;;;;;1034894;28;20087;-64
2022/09/07 01:08:37;;;;;;;3.22;1.45;;;24.20;99.90;;;;;;1034963;28;20116;-64
2022/09/07 01:09:11;;;;;;;1.93;1.37;;;24.20;99.90;;;;;;1034756;28;20040;-64
2022/09/07 01:09:46;;;;;;;2.13;1.35;;;24.20;99.90;;;;;;1034900;28;20014;-64
2022/09/07 01:10:16;;;;;;;1.52;1.05;;;24.20;99.90;;;;;;1034498;28;20029;-64
2022/09/07 01:10:47;;;;;;;2.20;1.03;;;24.20;99.90;;;;;;1034507;28;20671;-64
2022/09/07 01:11:20;;;;;;;2.33;1.50;;;24.20;99.90;;;;;;1034521;28;20018;-63
2022/09/07 01:11:53;;;;;;;1.30;1.20;;;24.20;99.90;;;;;;1034603;28;20037;-65
2022/09/07 01:12:24;;;;;;;2.13;1.13;;;24.20;99.90;;;;;;1034863;28;20092;-65
2022/09/07 01:12:54;;;;;;;2.17;1.27;;;24.20;99.90;;;;;;1034358;28;20022;-66
2022/09/07 01:13:26;;;;;;;1.97;1.03;;;24.20;99.90;;;;;;1034291;28;20151;-64
2022/09/07 01:13:57;;;;;;;1.48;1.10;;;24.20;99.90;;;;;;1034560;28;20050;-65
2022/09/07 01:14:31;;;;;;;1.95;1.10;;;24.30;99.90;;;;;;1034415;28;20499;-65
2022/09/07 01:15:02;;;;;;;2.17;1.02;;;24.30;99.90;;;;;;1034475;28;20105;-65
2022/09/07 01:15:53;;;;;;;1.37;1.17;;;24.30;99.90;;;;;;1034482;28;20025;-66
2022/09/07 01:16:42;;;;;;;1.88;1.20;;;24.30;99.90;;;;;;1034463;28;20207;-64
2022/09/07 01:17:25;;;;;;;2.55;1.35;;;24.30;99.90;;;;;;1034517;28;20088;-63
2022/09/07 01:18:08;;;;;;;2.80;1.60;;;24.30;99.90;;;;;;1034491;28;20121;-63
2022/09/07 01:19:17;;;;;;;2.95;1.70;;;24.30;99.90;;;;;;1034279;28;20021;-64
2022/09/07 01:20:24;;;;;;;1.98;1.38;;;24.20;99.90;;;;;;1030706;28;20485;-64
2022/09/07 01:21:19;;;;;;;2.78;1.65;;;24.10;99.90;;;;;;1030949;28;20033;-65
2022/09/07 01:21:52;;;;;;;2.05;1.33;;;24.20;99.90;;;;;;1030829;28;20026;-64
2022/09/07 01:22:39;;;;;;;4.00;1.50;;;24.10;99.90;;;;;;1032531;28;20386;-65
2022/09/07 01:23:19;;;;;;;2.22;1.42;;;24.10;99.90;;;;;;1030918;28;20069;-64
2022/09/07 01:24:20;;;;;;;1.90;1.30;;;24.20;99.90;;;;;;1030861;28;20096;-64
2022/09/07 01:25:08;;;;;;;2.08;1.27;;;24.20;99.90;;;;;;1034515;28;20022;-64
2022/09/07 01:26:05;;;;;;;1.65;1.10;;;24.20;99.90;;;;;;1034718;28;20075;-64
2022/09/07 01:26:57;;;;;;;2.15;1.70;;;24.20;99.90;;;;;;1030044;28;20061;-64
2022/09/07 01:28:08;;;;;;;1.70;1.20;;;24.20;99.90;;;;;;1032237;28;20689;-64
2022/09/07 01:28:41;;;;;;;2.15;1.40;;;24.20;99.90;;;;;;1034717;28;20068;-65
2022/09/07 01:29:39;;;;;;;2.20;1.30;;;24.20;99.90;;;;;;1034872;28;20090;-64
2022/09/07 01:30:13;;;;;;;2.65;1.25;;;24.20;99.90;;;;;;1030836;28;20021;-64
2022/09/07 01:31:17;;;;;;;1.80;1.10;;;24.20;99.90;;;;;;1030805;28;20031;-65
2022/09/07 01:32:08;;;;;;;2.47;1.80;;;24.20;99.90;;;;;;1030522;28;20042;-64
2022/09/07 01:33:05;;;;;;;2.13;1.25;;;24.20;99.90;;;;;;1030714;28;20025;-63
2022/09/07 01:33:48;;;;;;;1.42;1.30;;;24.30;99.90;;;;;;1030814;28;20761;-64
2022/09/07 01:34:24;;;;;;;1.80;1.13;;;24.30;99.90;;;;;;1030725;28;20026;-63
2022/09/07 01:34:55;;;;;;;1.83;1.30;;;24.30;99.90;;;;;;1033572;28;20032;-65
2022/09/07 01:35:40;;;;;;;1.67;1.20;;;24.30;99.90;;;;;;1034774;28;20507;-65
2022/09/07 01:36:31;;;;;;;2.00;1.30;;;24.30;99.90;;;;;;1034902;28;20017;-64
2022/09/07 01:37:45;;;;;;;1.38;0.85;;;24.30;99.90;;;;;;1030828;28;20019;-63
2022/09/07 01:38:37;;;;;;;1.65;1.10;;;24.30;99.90;;;;;;1034029;28;20030;-63
2022/09/07 01:39:08;;;;;;;1.25;1.15;;;24.40;99.90;;;;;;1032240;28;20157;-63
2022/09/07 01:40:14;;;;;;;1.37;0.90;;;24.30;99.90;;;;;;1034238;28;20103;-63
2022/09/07 01:41:01;;;;;;;1.30;0.95;;;24.30;99.90;;;;;;1029190;28;20030;-63
2022/09/07 01:41:42;;;;;;;1.73;0.98;;;24.30;99.90;;;;;;1034716;28;20373;-65
2022/09/07 01:42:14;;;;;;;1.48;0.98;;;24.40;99.90;;;;;;1034427;28;20715;-63
2022/09/07 01:43:05;;;;;;;2.13;1.27;;;24.40;99.90;;;;;;1034209;28;20060;-64
2022/09/07 01:44:17;;;;;;;3.03;1.00;;;24.30;99.90;;;;;;1031050;28;20022;-64
2022/09/07 01:44:54;;;;;;;1.20;0.90;;;24.30;99.90;;;;;;1027569;28;20076;-63
2022/09/07 01:45:31;;;;;;;1.85;1.30;;;24.30;99.90;;;;;;1035012;28;20014;-64
2022/09/07 01:46:06;;;;;;;1.35;0.98;;;24.30;99.90;;;;;;1034791;28;20722;-63
2022/09/07 01:47:03;;;;;;;2.17;1.52;;;24.40;99.90;;;;;;1034688;28;20812;-64
2022/09/07 01:47:40;;;;;;;1.35;1.02;;;24.30;99.90;;;;;;1034070;28;20120;-63
2022/09/07 01:48:16;;;;;;;2.67;0.98;;;24.30;99.90;;;;;;1030412;28;20026;-63
2022/09/07 01:48:50;;;;;;;2.20;1.35;;;24.30;99.90;;;;;;1030259;28;20393;-63
2022/09/07 01:50:03;;;;;;;1.75;1.23;;;24.30;99.90;;;;;;1032579;28;20022;-64
2022/09/07 01:50:45;;;;;;;1.52;1.00;;;24.30;99.90;;;;;;1031555;28;20054;-63
2022/09/07 01:51:19;;;;;;;1.58;0.90;;;24.20;99.90;;;;;;1034546;28;20029;-63
2022/09/07 01:51:55;;;;;;;1.20;1.00;;;24.30;99.90;;;;;;1031347;28;20477;-65
2022/09/07 01:52:32;;;;;;;1.30;1.20;;;24.20;99.90;;;;;;1034561;28;20025;-64
2022/09/07 01:53:10;;;;;;;1.75;1.27;;;24.30;99.90;;;;;;1036758;28;20053;-64
2022/09/07 01:53:49;;;;;;;1.90;1.27;;;24.20;99.90;;;;;;1038702;28;20427;-63
2022/09/07 01:54:33;;;;;;;2.55;0.93;;;24.20;99.90;;;;;;1030380;28;20022;-64
2022/09/07 01:55:06;;;;;;;1.38;1.15;;;24.30;99.90;;;;;;1030403;28;20026;-63
2022/09/07 01:55:44;;;;;;;1.40;1.30;;;24.20;99.90;;;;;;1031787;28;20026;-63
2022/09/07 01:56:29;;;;;;;0.85;0.80;;;24.20;99.90;;;;;;1034435;28;20017;-65
2022/09/07 01:57:09;;;;;;;1.05;0.80;;;24.20;99.90;;;;;;1034780;28;20054;-64
2022/09/07 01:57:50;;;;;;;1.83;1.20;;;24.20;99.90;;;;;;1032722;28;20022;-66
2022/09/07 01:58:28;;;;;;;1.48;1.23;;;24.20;99.90;;;;;;1034552;28;20041;-65
2022/09/07 01:59:06;;;;;;;1.25;0.88;;;24.30;99.90;;;;;;1034471;28;20467;-64
2022/09/07 01:59:51;;;;;;;1.13;0.85;;;24.20;99.90;;;;;;1034482;28;20014;-63
2022/09/07 02:00:21;;;;;;;2.20;1.20;;;24.20;99.90;;;;;;1034413;28;20018;-64
2022/09/07 02:00:59;;;;;;;1.93;1.03;;;24.20;99.90;;;;;;1034476;28;20045;-65
2022/09/07 02:02:12;;;;;;;1.55;1.05;;;24.20;99.90;;;;;;1034425;28;20328;-64
2022/09/07 02:02:58;;;;;;;1.63;0.82;;;24.20;99.90;;;;;;1030968;28;20036;-65
2022/09/07 02:03:37;;;;;;;1.52;1.15;;;24.20;99.90;;;;;;1034288;28;20021;-64
2022/09/07 02:04:18;;;;;;;1.88;1.10;;;24.20;99.90;;;;;;1034339;28;20655;-63
2022/09/07 02:04:55;;;;;;;2.97;1.20;;;24.20;99.90;;;;;;1034657;28;20687;-64
2022/09/07 02:05:57;;;;;;;1.70;1.10;;;24.20;99.90;;;;;;1034819;28;20107;-65
2022/09/07 02:06:27;;;;;;;2.45;1.20;;;24.20;99.90;;;;;;1034339;28;20373;-64
2022/09/07 02:07:06;;;;;;;1.50;1.03;;;24.20;99.90;;;;;;1034661;28;20674;-66
2022/09/07 02:08:12;;;;;;;2.58;0.80;;;24.20;99.90;;;;;;1034832;28;20058;-64
2022/09/07 02:08:56;;;;;;;1.48;1.10;;;24.20;99.90;;;;;;1034191;28;20038;-66
2022/09/07 02:09:46;;;;;;;2.13;1.05;;;24.20;99.90;;;;;;1034804;28;20500;-63
2022/09/07 02:10:27;;;;;;;2.08;1.30;;;24.20;99.90;;;;;;1034924;28;20022;-63
2022/09/07 02:11:05;;;;;;;1.88;1.00;;;24.20;99.90;;;;;;1034577;28;20021;-63
2022/09/07 02:11:46;;;;;;;1.98;1.20;;;24.20;99.90;;;;;;1034848;28;20025;-65
2022/09/07 02:12:29;;;;;;;1.48;0.82;;;24.20;99.90;;;;;;1034858;28;20471;-64
2022/09/07 02:13:05;;;;;;;1.00;0.82;;;24.20;99.90;;;;;;1034408;28;20718;-65
2022/09/07 02:13:40;;;;;;;2.17;1.00;;;24.20;99.90;;;;;;1034698;28;20055;-63
2022/09/07 02:14:15;;;;;;;2.58;1.10;;;24.20;99.90;;;;;;1034538;28;20018;-64
2022/09/07 02:14:49;;;;;;;1.85;1.05;;;24.20;99.90;;;;;;1034834;28;20640;-64
2022/09/07 02:15:41;;;;;;;1.33;1.10;;;24.20;99.90;;;;;;1034216;28;20112;-65
2022/09/07 02:16:28;;;;;;;1.40;1.02;;;24.20;99.90;;;;;;1034135;28;20559;-64
2022/09/07 02:17:15;;;;;;;3.17;1.25;;;24.20;99.90;;;;;;1034470;28;20022;-65
2022/09/07 02:17:51;;;;;;;;;;;24.20;99.90;;;;;;1035347;28;20516;-63
2022/09/07 02:18:23;;;;;;;1.98;1.00;;;24.20;99.90;;;;;;1034687;28;19909;-64
2022/09/07 02:19:09;;;;;;;1.17;0.90;;;24.20;99.90;;;;;;1034878;28;20030;-64
2022/09/07 02:20:03;;;;;;;2.30;1.27;;;24.20;99.90;;;;;;1034531;28;20101;-64
2022/09/07 02:20:37;;;;;;;2.13;1.27;;;24.20;99.90;;;;;;1034807;28;20133;-65
2022/09/07 02:21:09;;;;;;;1.77;0.88;;;24.20;99.90;;;;;;1034792;28;20022;-64
2022/09/07 02:21:45;;;;;;;2.50;0.98;;;24.20;99.90;;;;;;1034614;28;20116;-64
2022/09/07 02:22:22;;;;;;;0.80;0.80;;;24.10;99.90;;;;;;1034929;28;20021;-65
2022/09/07 02:23:01;;;;;;;1.45;0.98;;;24.20;99.90;;;;;;1034726;28;20054;-64
2022/09/07 02:23:37;;;;;;;1.90;0.90;;;24.10;99.90;;;;;;1034758;28;20372;-64
2022/09/07 02:24:14;;;;;;;2.55;1.42;;;24.10;99.90;;;;;;1034577;28;20505;-63
2022/09/07 02:24:49;;;;;;;1.30;0.80;;;24.20;99.90;;;;;;1034178;28;20057;-64
2022/09/07 02:25:24;;;;;;;2.45;1.10;;;24.10;99.90;;;;;;1034519;28;20788;-64
2022/09/07 02:26:04;;;;;;;2.38;1.10;;;24.10;99.90;;;;;;1034303;28;20483;-65
2022/09/07 02:26:39;;;;;;;0.88;0.82;;;24.10;99.90;;;;;;1034778;28;20034;-65
2022/09/07 02:27:17;;;;;;;1.90;1.23;;;24.10;99.90;;;;;;1035790;28;20018;-64
2022/09/07 02:27:57;;;;;;;1.77;1.10;;;24.10;99.90;;;;;;1035374;28;20028;-64
2022/09/07 02:28:31;;;;;;;2.50;1.30;;;24.10;99.90;;;;;;1035691;28;20029;-64
2022/09/07 02:29:02;;;;;;;1.75;1.27;;;24.10;99.90;;;;;;1035180;28;20014;-64
2022/09/07 02:29:33;;;;;;;1.17;0.80;;;24.00;99.90;;;;;;1035066;28;20026;-64
2022/09/07 02:30:04;;;;;;;2.00;0.97;;;24.00;99.90;;;;;;1034990;28;20489;-63
2022/09/07 02:30:35;;;;;;;1.70;0.87;;;;;;;;;;1035152;28;20018;-64
2022/09/07 02:31:07;;;;;;;2.38;1.00;;;24.10;99.90;;;;;;1035261;28;20021;-63
2022/09/07 02:31:37;;;;;;;2.10;1.30;;;24.00;99.90;;;;;;1035427;28;20029;-63
2022/09/07 02:32:08;;;;;;;1.80;1.00;;;24.00;99.90;;;;;;1035469;28;20101;-63
2022/09/07 02:32:38;;;;;;;2.53;1.03;;;24.00;99.90;;;;;;1035695;28;20476;-66
2022/09/07 02:33:09;;;;;;;1.40;1.03;;;24.00;99.90;;;;;;1035433;28;20125;-63
2022/09/07 02:33:40;;;;;;;2.70;1.10;;;24.00;99.90;;;;;;1035500;28;20025;-63
2022/09/07 02:34:11;;;;;;;1.40;1.05;;;24.00;99.90;;;;;;1035504;28;20014;-63
2022/09/07 02:34:42;;;;;;;2.07;1.00;;;24.00;99.90;;;;;;1035551;28;20080;-64
2022/09/07 02:35:13;;;;;;;2.33;1.03;;;24.00;99.90;;;;;;1035471;28;20022;-64
2022/09/07 02:35:44;;;;;;;2.13;1.02;;;24.00;99.90;;;;;;1035458;28;20480;-63
2022/09/07 02:36:18;;;;;;;3.63;1.42;;;24.00;99.90;;;;;;1035197;28;20101;-65
2022/09/07 02:36:51;;;;;;;1.08;0.98;;;24.00;99.90;;;;;;1034243;28;20105;-64
2022/09/07 02:37:22;;;;;;;5.53;1.13;;;24.00;99.90;;;;;;1035319;28;20108;-64
2022/09/07 02:37:53;;;;;;;2.35;1.08;;;24.00;99.90;;;;;;1035481;28;20548;-64
2022/09/07 02:38:24;;;;;;;4.03;1.40;;;24.00;99.90;;;;;;1035304;28;20080;-65
2022/09/07 02:38:55;;;;;;;1.63;1.08;;;24.00;99.90;;;;;;1035540;28;20084;-65
2022/09/07 02:39:25;;;;;;;1.93;1.10;;;24.00;99.90;;;;;;1035412;28;20096;-64
2022/09/07 02:39:56;;;;;;;2.80;1.10;;;24.00;99.90;;;;;;1035608;28;20022;-65
2022/09/07 02:40:27;;;;;;;1.33;1.00;;;24.00;99.90;;;;;;1034835;28;20018;-64
2022/09/07 02:41:00;;;;;;;1.60;1.00;;;24.00;99.90;;;;;;1035092;28;20017;-64
2022/09/07 02:41:34;;;;;;;1.65;1.02;;;24.00;99.90;;;;;;1035102;28;20007;-64
2022/09/07 02:42:05;;;;;;;1.27;1.10;;;24.00;99.90;;;;;;1035114;28;20152;-64
2022/09/07 02:42:37;;;;;;;2.50;1.30;;;23.90;99.90;;;;;;1034735;28;20019;-64
2022/09/07 02:43:10;;;;;;;2.03;1.15;;;24.00;99.90;;;;;;1035213;28;20018;-64
2022/09/07 02:43:40;;;;;;;2.45;1.05;;;24.00;99.90;;;;;;1034786;28;20041;-64
2022/09/07 02:44:18;;;;;;;1.70;1.00;;;24.00;99.90;;;;;;1034915;28;20022;-64
2022/09/07 02:44:48;;;;;;;1.40;1.30;;;24.00;99.90;;;;;;1034979;28;20582;-63
2022/09/07 02:45:20;;;;;;;2.13;1.20;;;24.00;99.90;;;;;;1035193;28;20530;-66
2022/09/07 02:46:13;;;;;;;1.33;1.00;;;24.00;99.90;;;;;;1035042;28;20041;-64
2022/09/07 02:46:59;;;;;;;1.40;1.25;;;24.00;99.90;;;;;;1035224;28;20527;-64
2022/09/07 02:48:13;;;;;;;2.10;1.30;;;24.00;99.90;;;;;;1035235;28;20018;-64
2022/09/07 02:48:58;;;;;;;1.65;1.05;;;24.00;99.90;;;;;;1034383;28;20143;-64
2022/09/07 02:50:08;;;;;;;1.27;1.10;;;24.00;99.90;;;;;;1035310;28;20061;-64
2022/09/07 02:50:57;;;;;;;1.45;1.00;;;23.90;99.90;;;;;;1034361;28;20567;-63
2022/09/07 02:51:43;;;;;;;1.98;1.00;;;24.00;99.90;;;;;;1035336;28;20578;-63
2022/09/07 02:52:38;;;;;;;2.15;0.95;;;24.00;99.90;;;;;;1038380;28;20059;-66
2022/09/07 02:53:32;;;;;;;1.73;1.10;;;24.00;99.90;;;;;;1034575;28;20639;-65
2022/09/07 02:54:33;;;;;;;1.85;0.80;;;24.00;99.90;;;;;;1031228;28;20030;-63
2022/09/07 02:55:22;;;;;;;2.25;1.20;;;24.00;99.90;;;;;;1031556;28;20050;-65
2022/09/07 02:56:19;;;;;;;1.33;0.90;;;24.00;99.90;;;;;;1035600;28;20041;-64
2022/09/07 02:57:16;;;;;;;2.50;1.23;;;24.00;99.90;;;;;;1035157;28;20101;-64
2022/09/07 02:58:26;;;;;;;3.33;1.20;;;24.00;99.90;;;;;;1035186;28;20026;-65
2022/09/07 02:58:59;;;;;;;1.27;1.02;;;24.00;99.90;;;;;;1031395;28;20030;-65
2022/09/07 02:59:53;;;;;;;1.38;1.17;;;24.00;99.90;;;;;;1031349;28;20045;-64
2022/09/07 03:00:26;;;;;;;1.42;1.08;;;24.00;99.90;;;;;;1033546;28;20026;-64
2022/09/07 03:01:17;;;;;;;1.50;1.25;;;24.00;99.90;;;;;;1035496;28;20048;-64
2022/09/07 03:02:15;;;;;;;2.17;1.20;;;24.00;99.90;;;;;;1035636;28;20171;-64
2022/09/07 03:03:05;;;;;;;1.65;1.20;;;24.00;99.90;;;;;;1031430;28;20448;-63
2022/09/07 03:03:51;;;;;;;1.48;1.27;;;23.90;99.90;;;;;;1031471;28;20101;-64
2022/09/07 03:04:30;;;;;;;2.55;1.40;;;24.00;99.90;;;;;;1035099;28;20504;-64
2022/09/07 03:05:15;;;;;;;3.58;1.30;;;23.90;99.90;;;;;;1031047;28;20721;-64
2022/09/07 03:05:54;;;;;;;1.63;1.20;;;23.90;99.90;;;;;;1030993;28;20014;-64
2022/09/07 03:06:53;;;;;;;2.05;1.25;;;23.90;99.90;;;;;;1031169;28;20049;-63
2022/09/07 03:07:48;;;;;;;2.97;1.20;;;23.90;99.90;;;;;;1035450;28;20014;-64
2022/09/07 03:08:30;;;;;;;1.25;1.10;;;23.90;99.90;;;;;;1035535;28;20041;-64
2022/09/07 03:09:06;;;;;;;4.82;1.20;;;23.90;99.90;;;;;;1034978;28;20018;-64
2022/09/07 03:09:40;;;;;;;2.28;1.20;;;23.90;99.90;;;;;;1035027;28;20025;-63
2022/09/07 03:10:13;;;;;;;1.60;1.10;;;23.90;99.90;;;;;;1035192;28;20032;-63
2022/09/07 03:10:45;;;;;;;3.20;1.30;;;23.90;99.90;;;;;;1034852;28;20048;-65
2022/09/07 03:11:16;;;;;;;1.38;1.27;;;23.90;99.90;;;;;;1035111;28;20156;-64
2022/09/07 03:11:47;;;;;;;3.20;1.00;;;23.90;99.90;;;;;;1035128;28;20022;-64
2022/09/07 03:12:18;;;;;;;3.33;1.20;;;23.90;99.90;;;;;;1034987;28;20020;-63
2022/09/07 03:12:50;;;;;;;1.42;1.27;;;23.90;99.90;;;;;;1034931;28;20644;-63
2022/09/07 03:13:23;;;;;;;2.03;1.25;;;23.80;99.90;;;;;;1035494;28;20018;-63
2022/09/07 03:14:10;;;;;;;1.88;1.25;;;;;;;;;;1034811;28;20054;-63
2022/09/07 03:14:42;;;;;;;1.88;1.08;;;23.80;99.90;;;;;;1035190;28;20076;-63
2022/09/07 03:15:15;;;;;;;3.95;1.20;;;23.80;99.90;;;;;;1034976;28;20014;-63
2022/09/07 03:15:45;;;;;;;1.77;1.10;;;23.80;99.90;;;;;;1035352;28;20043;-64
2022/09/07 03:16:16;;;;;;;2.00;1.13;;;23.80;99.90;;;;;;1034852;28;20472;-64
2022/09/07 03:16:49;;;;;;;1.70;1.13;;;23.80;99.90;;;;;;1035178;28;20037;-65
2022/09/07 03:17:20;;;;;;;2.10;1.13;;;23.80;99.90;;;;;;1034784;28;20025;-64
2022/09/07 03:17:51;;;;;;;1.90;1.10;;;23.80;99.90;;;;;;1035367;28;20037;-64
2022/09/07 03:18:26;;;;;;;4.15;1.58;;;23.80;99.90;;;;;;1034686;28;20568;-64